sensor_id;sensor_type;location;lat;lon;timestamp;pressure;altitude;pressure_sealevel;temperature;humidity
3796;BME280;1913;50.660;7.834;2023-03-25T00:01:03;96140.28;;;7.24;100.00
3796;BME280;1913;50.660;7.834;2023-03-25T00:03:34;96151.94;;;7.21;100.00
3796;BME280;1913;50.660;7.834;2023-03-25T00:06:07;96151.38;;;7.12;100.00
3796;BME280;1913;50.660;7.834;2023-03-25T00:08:33;96153.56;;;7.22;100.00
3796;BME280;1913;50.660;7.834;2023-03-25T00:11:01;96157.38;;;7.26;100.00
3796;BME280;1913;50.660;7.834;2023-03-25T00:13:29;96157.16;;;7.28;100.00
3796;BME280;1913;50.660;7.834;2023-03-25T00:15:56;96164.84;;;7.16;100.00
3796;BME280;1913;50.660;7.834;2023-03-25T00:18:27;96159.38;;;7.24;100.00
3796;BME280;1913;50.660;7.834;2023-03-25T00:21:00;96154.31;;;7.29;100.00
3796;BME280;1913;50.660;7.834;2023-03-25T00:23:27;96153.38;;;7.17;100.00
3796;BME280;1913;50.660;7.834;2023-03-25T00:25:53;96151.59;;;7.04;100.00
3796;BME280;1913;50.660;7.834;2023-03-25T00:28:32;96157.44;;;7.00;100.00
3796;BME280;1913;50.660;7.834;2023-03-25T00:31:02;96159.81;;;7.08;100.00
3796;BME280;1913;50.660;7.834;2023-03-25T00:33:29;96157.03;;;7.03;100.00
3796;BME280;1913;50.660;7.834;2023-03-25T00:35:56;96155.81;;;7.12;100.00
3796;BME280;1913;50.660;7.834;2023-03-25T00:38:28;96168.25;;;7.16;100.00
3796;BME280;1913;50.660;7.834;2023-03-25T00:43:41;96156.47;;;6.94;100.00
3796;BME280;1913;50.660;7.834;2023-03-25T00:46:06;96157.66;;;6.91;100.00
3796;BME280;1913;50.660;7.834;2023-03-25T00:48:32;96155.22;;;6.96;100.00
3796;BME280;1913;50.660;7.834;2023-03-25T00:50:58;96156.88;;;6.91;100.00
3796;BME280;1913;50.660;7.834;2023-03-25T00:53:23;96164.31;;;6.87;100.00
3796;BME280;1913;50.660;7.834;2023-03-25T00:55:49;96158.88;;;6.89;100.00
3796;BME280;1913;50.660;7.834;2023-03-25T00:58:15;96151.03;;;6.95;100.00
3796;BME280;1913;50.660;7.834;2023-03-25T01:00:40;96158.63;;;7.10;100.00
3796;BME280;1913;50.660;7.834;2023-03-25T01:03:06;96152.19;;;7.06;100.00
3796;BME280;1913;50.660;7.834;2023-03-25T01:05:33;96149.22;;;6.96;100.00
3796;BME280;1913;50.660;7.834;2023-03-25T01:07:59;96143.16;;;7.09;100.00
3796;BME280;1913;50.660;7.834;2023-03-25T01:10:26;96142.19;;;6.96;100.00
3796;BME280;1913;50.660;7.834;2023-03-25T01:12:51;96146.56;;;7.09;100.00
3796;BME280;1913;50.660;7.834;2023-03-25T01:15:17;96147.34;;;7.16;100.00
3796;BME280;1913;50.660;7.834;2023-03-25T01:17:43;96141.78;;;7.00;100.00
3796;BME280;1913;50.660;7.834;2023-03-25T01:20:08;96142.56;;;7.07;100.00
3796;BME280;1913;50.660;7.834;2023-03-25T01:22:34;96138.97;;;7.01;100.00
3796;BME280;1913;50.660;7.834;2023-03-25T01:25:00;96137.94;;;7.02;100.00
3796;BME280;1913;50.660;7.834;2023-03-25T01:27:26;96132.91;;;7.01;100.00
3796;BME280;1913;50.660;7.834;2023-03-25T01:29:51;96139.53;;;7.03;100.00
3796;BME280;1913;50.660;7.834;2023-03-25T01:32:19;96142.97;;;6.97;100.00
3796;BME280;1913;50.660;7.834;2023-03-25T01:34:45;96129.91;;;6.97;100.00
3796;BME280;1913;50.660;7.834;2023-03-25T01:37:11;96114.31;;;6.84;100.00
3796;BME280;1913;50.660;7.834;2023-03-25T01:39:37;96126.91;;;6.93;100.00
3796;BME280;1913;50.660;7.834;2023-03-25T01:42:02;96115.66;;;6.93;100.00
3796;BME280;1913;50.660;7.834;2023-03-25T01:46:54;96119.66;;;7.09;100.00
3796;BME280;1913;50.660;7.834;2023-03-25T01:49:27;96111.69;;;6.90;100.00
3796;BME280;1913;50.660;7.834;2023-03-25T01:51:57;96122.47;;;7.01;100.00
3796;BME280;1913;50.660;7.834;2023-03-25T01:54:25;96125.69;;;7.03;100.00
3796;BME280;1913;50.660;7.834;2023-03-25T01:56:55;96110.00;;;7.09;100.00
3796;BME280;1913;50.660;7.834;2023-03-25T01:59:24;96125.69;;;7.03;100.00
3796;BME280;1913;50.660;7.834;2023-03-25T02:01:53;96115.47;;;7.01;100.00
3796;BME280;1913;50.660;7.834;2023-03-25T02:04:48;96117.44;;;7.06;100.00
3796;BME280;1913;50.660;7.834;2023-03-25T02:07:16;96111.78;;;7.15;100.00
3796;BME280;1913;50.660;7.834;2023-03-25T02:09:44;96115.03;;;7.04;100.00
3796;BME280;1913;50.660;7.834;2023-03-25T02:12:09;96112.84;;;7.01;100.00
3796;BME280;1913;50.660;7.834;2023-03-25T02:14:36;96107.19;;;7.04;100.00
3796;BME280;1913;50.660;7.834;2023-03-25T02:25:57;96092.38;;;6.91;100.00
3796;BME280;1913;50.660;7.834;2023-03-25T02:28:36;96101.22;;;6.90;100.00
3796;BME280;1913;50.660;7.834;2023-03-25T02:34:39;96089.59;;;6.80;100.00
3796;BME280;1913;50.660;7.834;2023-03-25T02:36:36;96086.75;;;6.88;100.00
3796;BME280;1913;50.660;7.834;2023-03-25T02:39:13;96086.38;;;6.78;100.00
3796;BME280;1913;50.660;7.834;2023-03-25T02:44:35;96088.38;;;6.76;100.00
3796;BME280;1913;50.660;7.834;2023-03-25T02:47:08;96077.34;;;6.80;100.00
3796;BME280;1913;50.660;7.834;2023-03-25T02:49:41;96085.59;;;6.77;100.00
3796;BME280;1913;50.660;7.834;2023-03-25T02:52:16;96080.38;;;6.77;100.00
3796;BME280;1913;50.660;7.834;2023-03-25T02:54:43;96083.53;;;6.86;100.00
3796;BME280;1913;50.660;7.834;2023-03-25T02:57:14;96085.56;;;6.84;100.00
3796;BME280;1913;50.660;7.834;2023-03-25T02:59:45;96085.75;;;6.89;100.00
3796;BME280;1913;50.660;7.834;2023-03-25T03:02:12;96076.16;;;6.69;100.00
3796;BME280;1913;50.660;7.834;2023-03-25T03:04:52;96074.94;;;6.72;100.00
3796;BME280;1913;50.660;7.834;2023-03-25T03:07:38;96059.25;;;6.79;100.00
3796;BME280;1913;50.660;7.834;2023-03-25T03:10:22;96047.63;;;6.75;100.00
3796;BME280;1913;50.660;7.834;2023-03-25T03:13:02;96060.69;;;6.68;100.00
3796;BME280;1913;50.660;7.834;2023-03-25T03:21:23;96059.06;;;6.80;100.00
3796;BME280;1913;50.660;7.834;2023-03-25T03:24:14;96064.28;;;6.87;100.00
3796;BME280;1913;50.660;7.834;2023-03-25T03:29:22;96064.69;;;6.84;100.00
3796;BME280;1913;50.660;7.834;2023-03-25T03:32:03;96075.94;;;6.78;100.00
3796;BME280;1913;50.660;7.834;2023-03-25T03:34:37;96076.34;;;6.75;100.00
3796;BME280;1913;50.660;7.834;2023-03-25T03:37:36;96072.53;;;6.77;100.00
3796;BME280;1913;50.660;7.834;2023-03-25T03:40:07;96071.53;;;6.71;100.00
3796;BME280;1913;50.660;7.834;2023-03-25T03:45:58;96077.38;;;6.74;100.00
3796;BME280;1913;50.660;7.834;2023-03-25T03:48:31;96077.75;;;6.77;100.00
3796;BME280;1913;50.660;7.834;2023-03-25T03:51:02;96081.56;;;6.75;100.00
3796;BME280;1913;50.660;7.834;2023-03-25T03:53:36;96080.78;;;6.67;100.00
3796;BME280;1913;50.660;7.834;2023-03-25T03:58:32;96091.38;;;6.86;100.00
3796;BME280;1913;50.660;7.834;2023-03-25T04:01:29;96092.75;;;6.95;100.00
3796;BME280;1913;50.660;7.834;2023-03-25T04:04:03;96108.03;;;6.98;100.00
3796;BME280;1913;50.660;7.834;2023-03-25T04:09:35;96098.81;;;6.89;100.00
3796;BME280;1913;50.660;7.834;2023-03-25T04:12:07;96109.38;;;7.07;100.00
3796;BME280;1913;50.660;7.834;2023-03-25T04:14:36;96102.00;;;6.98;100.00
3796;BME280;1913;50.660;7.834;2023-03-25T04:17:04;96104.81;;;6.96;100.00
3796;BME280;1913;50.660;7.834;2023-03-25T04:19:29;96115.91;;;6.85;100.00
3796;BME280;1913;50.660;7.834;2023-03-25T04:21:59;96107.44;;;6.89;100.00
3796;BME280;1913;50.660;7.834;2023-03-25T04:24:27;96109.25;;;6.89;100.00
3796;BME280;1913;50.660;7.834;2023-03-25T04:27:02;96109.06;;;6.90;100.00
3796;BME280;1913;50.660;7.834;2023-03-25T04:29:29;96111.69;;;6.84;100.00
3796;BME280;1913;50.660;7.834;2023-03-25T04:31:57;96113.91;;;6.87;100.00
3796;BME280;1913;50.660;7.834;2023-03-25T04:34:22;96113.69;;;6.88;100.00
3796;BME280;1913;50.660;7.834;2023-03-25T04:36:49;96112.25;;;6.92;100.00
3796;BME280;1913;50.660;7.834;2023-03-25T04:39:16;96111.28;;;6.87;100.00
3796;BME280;1913;50.660;7.834;2023-03-25T04:41:42;96118.06;;;7.01;100.00
3796;BME280;1913;50.660;7.834;2023-03-25T04:44:09;96114.25;;;6.97;100.00
3796;BME280;1913;50.660;7.834;2023-03-25T04:46:35;96112.25;;;6.99;100.00
3796;BME280;1913;50.660;7.834;2023-03-25T04:49:03;96121.25;;;7.10;100.00
3796;BME280;1913;50.660;7.834;2023-03-25T04:51:31;96117.50;;;6.86;100.00
3796;BME280;1913;50.660;7.834;2023-03-25T04:53:57;96119.69;;;6.89;100.00
3796;BME280;1913;50.660;7.834;2023-03-25T04:56:23;96117.47;;;6.92;100.00
3796;BME280;1913;50.660;7.834;2023-03-25T04:58:48;96122.13;;;6.90;100.00
3796;BME280;1913;50.660;7.834;2023-03-25T05:01:21;96129.53;;;6.93;100.00
3796;BME280;1913;50.660;7.834;2023-03-25T05:03:48;96122.06;;;7.04;100.00
3796;BME280;1913;50.660;7.834;2023-03-25T05:06:17;96123.31;;;6.94;100.00
3796;BME280;1913;50.660;7.834;2023-03-25T05:08:43;96119.28;;;6.92;100.00
3796;BME280;1913;50.660;7.834;2023-03-25T05:11:08;96115.03;;;7.04;100.00
3796;BME280;1913;50.660;7.834;2023-03-25T05:13:34;96115.25;;;6.96;100.00
3796;BME280;1913;50.660;7.834;2023-03-25T05:15:59;96115.09;;;6.91;100.00
3796;BME280;1913;50.660;7.834;2023-03-25T05:18:25;96118.28;;;6.86;100.00
3796;BME280;1913;50.660;7.834;2023-03-25T05:20:51;96122.50;;;6.94;100.00
3796;BME280;1913;50.660;7.834;2023-03-25T05:23:18;96121.28;;;6.96;100.00
3796;BME280;1913;50.660;7.834;2023-03-25T05:25:48;96115.09;;;6.91;100.00
3796;BME280;1913;50.660;7.834;2023-03-25T05:28:15;96122.31;;;6.89;100.00
3796;BME280;1913;50.660;7.834;2023-03-25T05:30:42;96122.50;;;6.94;100.00
3796;BME280;1913;50.660;7.834;2023-03-25T05:33:10;96120.09;;;6.92;100.00
3796;BME280;1913;50.660;7.834;2023-03-25T05:35:37;96121.28;;;6.96;100.00
3796;BME280;1913;50.660;7.834;2023-03-25T05:38:04;96140.34;;;7.04;100.00
3796;BME280;1913;50.660;7.834;2023-03-25T05:40:30;96140.56;;;7.09;100.00
3796;BME280;1913;50.660;7.834;2023-03-25T05:42:57;96130.75;;;6.91;100.00
3796;BME280;1913;50.660;7.834;2023-03-25T05:45:23;96137.41;;;6.87;100.00
3796;BME280;1913;50.660;7.834;2023-03-25T05:47:48;96145.56;;;7.04;100.00
3796;BME280;1913;50.660;7.834;2023-03-25T05:50:15;96137.75;;;6.97;100.00
3796;BME280;1913;50.660;7.834;2023-03-25T05:52:42;96155.22;;;7.03;100.00
3796;BME280;1913;50.660;7.834;2023-03-25T05:55:18;96153.81;;;7.01;100.00
3796;BME280;1913;50.660;7.834;2023-03-25T05:57:44;96151.81;;;6.96;100.00
3796;BME280;1913;50.660;7.834;2023-03-25T06:00:10;96156.03;;;7.04;100.00
3796;BME280;1913;50.660;7.834;2023-03-25T06:02:40;96154.81;;;7.00;100.00
3796;BME280;1913;50.660;7.834;2023-03-25T06:05:09;96147.59;;;7.02;100.00
3796;BME280;1913;50.660;7.834;2023-03-25T06:07:42;96150.81;;;6.97;100.00
3796;BME280;1913;50.660;7.834;2023-03-25T06:10:09;96153.63;;;7.02;100.00
3796;BME280;1913;50.660;7.834;2023-03-25T06:12:35;96148.78;;;7.06;100.00
3796;BME280;1913;50.660;7.834;2023-03-25T06:15:09;96160.44;;;7.03;100.00
3796;BME280;1913;50.660;7.834;2023-03-25T06:17:36;96163.28;;;7.02;100.00
3796;BME280;1913;50.660;7.834;2023-03-25T06:20:09;96149.97;;;7.16;100.00
3796;BME280;1913;50.660;7.834;2023-03-25T06:22:38;96147.59;;;7.02;100.00
3796;BME280;1913;50.660;7.834;2023-03-25T06:25:04;96155.44;;;7.08;100.00
3796;BME280;1913;50.660;7.834;2023-03-25T06:27:30;96162.88;;;6.98;100.00
3796;BME280;1913;50.660;7.834;2023-03-25T06:30:00;96156.03;;;6.97;100.00
3796;BME280;1913;50.660;7.834;2023-03-25T06:32:26;96154.63;;;7.01;100.00
3796;BME280;1913;50.660;7.834;2023-03-25T06:34:51;96157.66;;;6.98;100.00
3796;BME280;1913;50.660;7.834;2023-03-25T06:37:17;96155.44;;;7.02;100.00
3796;BME280;1913;50.660;7.834;2023-03-25T06:39:43;96159.63;;;7.16;100.00
3796;BME280;1913;50.660;7.834;2023-03-25T06:42:14;96158.63;;;7.10;100.00
3796;BME280;1913;50.660;7.834;2023-03-25T06:44:40;96162.66;;;7.06;100.00
3796;BME280;1913;50.660;7.834;2023-03-25T06:47:05;96163.59;;;7.25;100.00
3796;BME280;1913;50.660;7.834;2023-03-25T06:49:31;96169.88;;;7.11;100.00
3796;BME280;1913;50.660;7.834;2023-03-25T06:51:57;96167.47;;;7.09;100.00
3796;BME280;1913;50.660;7.834;2023-03-25T06:54:23;96167.66;;;7.08;100.00
3796;BME280;1913;50.660;7.834;2023-03-25T06:56:48;96153.88;;;6.81;100.00
3796;BME280;1913;50.660;7.834;2023-03-25T06:59:14;96162.25;;;7.09;100.00
3796;BME280;1913;50.660;7.834;2023-03-25T07:01:39;96168.66;;;7.20;100.00
3796;BME280;1913;50.660;7.834;2023-03-25T07:04:05;96150.72;;;7.37;100.00
3796;BME280;1913;50.660;7.834;2023-03-25T07:06:31;96144.47;;;7.31;100.00
3796;BME280;1913;50.660;7.834;2023-03-25T07:08:56;96148.31;;;7.22;100.00
3796;BME280;1913;50.660;7.834;2023-03-25T07:11:25;96135.03;;;7.37;100.00
3796;BME280;1913;50.660;7.834;2023-03-25T07:13:51;96146.06;;;7.84;100.00
3796;BME280;1913;50.660;7.834;2023-03-25T07:16:19;96153.69;;;7.85;100.00
3796;BME280;1913;50.660;7.834;2023-03-25T07:18:47;96147.84;;;7.90;100.00
3796;BME280;1913;50.660;7.834;2023-03-25T07:21:12;96144.69;;;8.06;100.00
3796;BME280;1913;50.660;7.834;2023-03-25T07:23:38;96136.91;;;8.25;100.00
3796;BME280;1913;50.660;7.834;2023-03-25T07:26:04;96136.50;;;7.96;100.00
3796;BME280;1913;50.660;7.834;2023-03-25T07:28:29;96139.44;;;7.75;100.00
3796;BME280;1913;50.660;7.834;2023-03-25T07:30:55;96123.50;;;7.51;100.00
3796;BME280;1913;50.660;7.834;2023-03-25T07:33:21;96135.72;;;7.57;100.00
3796;BME280;1913;50.660;7.834;2023-03-25T07:35:46;96130.06;;;7.60;100.00
3796;BME280;1913;50.660;7.834;2023-03-25T07:38:12;96122.88;;;7.56;100.00
3796;BME280;1913;50.660;7.834;2023-03-25T07:40:37;96142.41;;;7.85;100.00
3796;BME280;1913;50.660;7.834;2023-03-25T07:43:03;96155.34;;;7.80;100.00
3796;BME280;1913;50.660;7.834;2023-03-25T07:45:29;96135.53;;;7.59;100.00
3796;BME280;1913;50.660;7.834;2023-03-25T07:47:55;96132.72;;;7.54;100.00
3796;BME280;1913;50.660;7.834;2023-03-25T07:50:22;96142.00;;;7.43;100.00
3796;BME280;1913;50.660;7.834;2023-03-25T07:52:48;96131.78;;;7.41;100.00
3796;BME280;1913;50.660;7.834;2023-03-25T07:55:14;96133.78;;;7.39;100.00
3796;BME280;1913;50.660;7.834;2023-03-25T07:57:41;96140.88;;;7.26;100.00
3796;BME280;1913;50.660;7.834;2023-03-25T08:00:08;96138.88;;;7.28;100.00
3796;BME280;1913;50.660;7.834;2023-03-25T08:02:35;96144.06;;;7.34;100.00
3796;BME280;1913;50.660;7.834;2023-03-25T08:05:01;96147.72;;;7.27;100.00
3796;BME280;1913;50.660;7.834;2023-03-25T08:07:27;96150.59;;;7.12;100.00
3796;BME280;1913;50.660;7.834;2023-03-25T08:09:53;96143.19;;;6.89;100.00
3796;BME280;1913;50.660;7.834;2023-03-25T08:12:18;96146.44;;;6.78;100.00
3796;BME280;1913;50.660;7.834;2023-03-25T08:14:44;96152.63;;;6.96;100.00
3796;BME280;1913;50.660;7.834;2023-03-25T08:17:09;96146.03;;;6.81;100.00
3796;BME280;1913;50.660;7.834;2023-03-25T08:19:35;96155.03;;;6.98;100.00
3796;BME280;1913;50.660;7.834;2023-03-25T08:22:01;96162.50;;;6.75;100.00
3796;BME280;1913;50.660;7.834;2023-03-25T08:24:27;96162.31;;;6.76;100.00
3796;BME280;1913;50.660;7.834;2023-03-25T08:26:54;96186.22;;;6.66;100.00
3796;BME280;1913;50.660;7.834;2023-03-25T08:29:20;96194.84;;;6.74;100.00
3796;BME280;1913;50.660;7.834;2023-03-25T08:31:46;96200.28;;;6.65;100.00
3796;BME280;1913;50.660;7.834;2023-03-25T08:34:17;96213.94;;;6.47;100.00
3796;BME280;1913;50.660;7.834;2023-03-25T08:36:43;96226.75;;;6.29;100.00
3796;BME280;1913;50.660;7.834;2023-03-25T08:39:10;96221.16;;;6.45;100.00
3796;BME280;1913;50.660;7.834;2023-03-25T08:41:38;96214.09;;;6.33;100.00
3796;BME280;1913;50.660;7.834;2023-03-25T08:44:04;96209.72;;;6.46;100.00
3796;BME280;1913;50.660;7.834;2023-03-25T08:46:30;96219.13;;;6.54;100.00
3796;BME280;1913;50.660;7.834;2023-03-25T08:48:56;96199.66;;;6.43;100.00
3796;BME280;1913;50.660;7.834;2023-03-25T08:51:22;96209.50;;;6.35;100.00
3796;BME280;1913;50.660;7.834;2023-03-25T08:53:47;96204.31;;;6.48;100.00
3796;BME280;1913;50.660;7.834;2023-03-25T08:56:13;96191.44;;;6.60;100.00
3796;BME280;1913;50.660;7.834;2023-03-25T08:58:39;96219.53;;;6.64;100.00
3796;BME280;1913;50.660;7.834;2023-03-25T09:01:05;96217.34;;;6.75;100.00
3796;BME280;1913;50.660;7.834;2023-03-25T09:03:31;96217.13;;;6.83;100.00
3796;BME280;1913;50.660;7.834;2023-03-25T09:05:57;96215.94;;;6.85;100.00
3796;BME280;1913;50.660;7.834;2023-03-25T09:08:23;96215.53;;;6.82;100.00
3796;BME280;1913;50.660;7.834;2023-03-25T09:10:48;96226.53;;;7.17;100.00
3796;BME280;1913;50.660;7.834;2023-03-25T09:13:14;96215.69;;;7.20;100.00
3796;BME280;1913;50.660;7.834;2023-03-25T09:15:40;96218.44;;;7.38;100.00
3796;BME280;1913;50.660;7.834;2023-03-25T09:18:06;96223.00;;;7.63;100.00
3796;BME280;1913;50.660;7.834;2023-03-25T09:20:32;96217.16;;;7.61;100.00
3796;BME280;1913;50.660;7.834;2023-03-25T09:22:58;96224.94;;;7.74;100.00
3796;BME280;1913;50.660;7.834;2023-03-25T09:25:23;96215.09;;;7.76;100.00
3796;BME280;1913;50.660;7.834;2023-03-25T09:27:50;96214.22;;;7.89;100.00
3796;BME280;1913;50.660;7.834;2023-03-25T09:30:15;96210.78;;;7.95;100.00
3796;BME280;1913;50.660;7.834;2023-03-25T09:32:41;96208.84;;;8.15;100.00
3796;BME280;1913;50.660;7.834;2023-03-25T09:35:09;96214.38;;;8.64;100.00
3796;BME280;1913;50.660;7.834;2023-03-25T09:37:34;96212.94;;;8.93;100.00
3796;BME280;1913;50.660;7.834;2023-03-25T09:40:00;96225.50;;;9.83;100.00
3796;BME280;1913;50.660;7.834;2023-03-25T09:50:33;96219.25;;;10.14;100.00
3796;BME280;1913;50.660;7.834;2023-03-25T09:55:39;96212.66;;;10.77;100.00
3796;BME280;1913;50.660;7.834;2023-03-25T09:58:35;96213.47;;;11.13;100.00
3796;BME280;1913;50.660;7.834;2023-03-25T10:01:11;96217.59;;;10.01;100.00
3796;BME280;1913;50.660;7.834;2023-03-25T10:06:57;96231.94;;;9.69;100.00
3796;BME280;1913;50.660;7.834;2023-03-25T10:09:50;96216.91;;;9.39;100.00
3796;BME280;1913;50.660;7.834;2023-03-25T10:12:32;96216.69;;;9.41;100.00
3796;BME280;1913;50.660;7.834;2023-03-25T10:15:32;96226.75;;;9.25;100.00
3796;BME280;1913;50.660;7.834;2023-03-25T10:18:08;96212.13;;;8.93;100.00
3796;BME280;1913;50.660;7.834;2023-03-25T10:21:07;96218.59;;;9.33;100.00
3796;BME280;1913;50.660;7.834;2023-03-25T10:29:16;96228.72;;;9.67;100.00
3796;BME280;1913;50.660;7.834;2023-03-25T10:31:51;96223.91;;;9.45;100.00
3796;BME280;1913;50.660;7.834;2023-03-25T10:34:19;96225.78;;;9.20;100.00
3796;BME280;1913;50.660;7.834;2023-03-25T10:36:54;96233.59;;;9.26;100.00
3796;BME280;1913;50.660;7.834;2023-03-25T10:39:23;96226.53;;;9.27;100.00
3796;BME280;1913;50.660;7.834;2023-03-25T10:41:58;96223.03;;;9.33;100.00
3796;BME280;1913;50.660;7.834;2023-03-25T10:44:26;96229.06;;;9.52;100.00
3796;BME280;1913;50.660;7.834;2023-03-25T10:47:05;96232.06;;;9.74;100.00
3796;BME280;1913;50.660;7.834;2023-03-25T10:49:33;96205.41;;;9.40;100.00
3796;BME280;1913;50.660;7.834;2023-03-25T10:52:01;96223.63;;;9.72;100.00
3796;BME280;1913;50.660;7.834;2023-03-25T10:54:30;96235.69;;;9.91;100.00
3796;BME280;1913;50.660;7.834;2023-03-25T10:57:08;96242.53;;;9.92;100.00
3796;BME280;1913;50.660;7.834;2023-03-25T11:02:33;96225.22;;;10.03;100.00
3796;BME280;1913;50.660;7.834;2023-03-25T11:05:02;96224.09;;;10.71;100.00
3796;BME280;1913;50.660;7.834;2023-03-25T11:07:35;96214.28;;;11.37;100.00
3796;BME280;1913;50.660;7.834;2023-03-25T11:12:43;96219.53;;;11.01;100.00
3796;BME280;1913;50.660;7.834;2023-03-25T11:15:33;96223.59;;;10.50;100.00
3796;BME280;1913;50.660;7.834;2023-03-25T11:18:29;96210.84;;;10.77;100.00
3796;BME280;1913;50.660;7.834;2023-03-25T11:20:59;96234.94;;;10.63;100.00
3796;BME280;1913;50.660;7.834;2023-03-25T11:24:01;96229.66;;;10.51;100.00
3796;BME280;1913;50.660;7.834;2023-03-25T11:26:27;96224.38;;;10.39;100.00
3796;BME280;1913;50.660;7.834;2023-03-25T11:29:18;96221.06;;;10.44;100.00
3796;BME280;1913;50.660;7.834;2023-03-25T11:31:56;96229.91;;;10.73;100.00
3796;BME280;1913;50.660;7.834;2023-03-25T11:34:22;96237.03;;;10.12;100.00
3796;BME280;1913;50.660;7.834;2023-03-25T11:36:54;96244.81;;;9.52;100.00
3796;BME280;1913;50.660;7.834;2023-03-25T11:39:29;96233.47;;;9.58;100.00
3796;BME280;1913;50.660;7.834;2023-03-25T11:41:57;96225.09;;;9.68;100.00
3796;BME280;1913;50.660;7.834;2023-03-25T11:44:30;96232.25;;;10.21;100.00
3796;BME280;1913;50.660;7.834;2023-03-25T11:47:05;96219.66;;;10.71;100.00
3796;BME280;1913;50.660;7.834;2023-03-25T11:49:34;96203.88;;;10.83;100.00
3796;BME280;1913;50.660;7.834;2023-03-25T11:52:20;96208.91;;;11.32;100.00
3796;BME280;1913;50.660;7.834;2023-03-25T11:54:47;96195.13;;;11.65;100.00
3796;BME280;1913;50.660;7.834;2023-03-25T11:57:22;96207.50;;;11.53;100.00
3796;BME280;1913;50.660;7.834;2023-03-25T11:59:49;96187.81;;;11.55;92.22
3796;BME280;1913;50.660;7.834;2023-03-25T12:02:28;96200.38;;;11.65;94.64
3796;BME280;1913;50.660;7.834;2023-03-25T12:07:22;96223.06;;;10.95;100.00
3796;BME280;1913;50.660;7.834;2023-03-25T12:09:57;96223.75;;;11.02;100.00
3796;BME280;1913;50.660;7.834;2023-03-25T12:12:42;96215.31;;;11.00;100.00
3796;BME280;1913;50.660;7.834;2023-03-25T12:15:21;96187.31;;;12.10;100.00
3796;BME280;1913;50.660;7.834;2023-03-25T12:18:29;96198.47;;;12.80;87.96
3796;BME280;1913;50.660;7.834;2023-03-25T12:26:10;96193.66;;;11.97;84.00
3796;BME280;1913;50.660;7.834;2023-03-25T12:37:29;96177.88;;;12.60;81.28
3796;BME280;1913;50.660;7.834;2023-03-25T12:43:05;96182.25;;;11.40;100.00
3796;BME280;1913;50.660;7.834;2023-03-25T12:46:00;96182.81;;;11.30;100.00
3796;BME280;1913;50.660;7.834;2023-03-25T12:48:42;96163.72;;;11.46;100.00
3796;BME280;1913;50.660;7.834;2023-03-25T13:05:23;96210.22;;;9.92;100.00
3796;BME280;1913;50.660;7.834;2023-03-25T13:08:02;96217.09;;;10.23;100.00
3796;BME280;1913;50.660;7.834;2023-03-25T13:10:33;96216.03;;;10.42;100.00
3796;BME280;1913;50.660;7.834;2023-03-25T13:13:02;96191.69;;;10.35;100.00
3796;BME280;1913;50.660;7.834;2023-03-25T13:15:46;96192.88;;;10.63;100.00
3796;BME280;1913;50.660;7.834;2023-03-25T13:18:34;96195.19;;;11.18;100.00
3796;BME280;1913;50.660;7.834;2023-03-25T13:21:09;96187.19;;;11.13;100.00
3796;BME280;1913;50.660;7.834;2023-03-25T13:23:37;96202.97;;;11.24;100.00
3796;BME280;1913;50.660;7.834;2023-03-25T13:26:12;96200.75;;;11.57;100.00
3796;BME280;1913;50.660;7.834;2023-03-25T13:28:45;96192.75;;;11.51;99.06
3796;BME280;1913;50.660;7.834;2023-03-25T13:31:16;96202.06;;;11.19;100.00
3796;BME280;1913;50.660;7.834;2023-03-25T13:33:47;96193.41;;;11.59;100.00
3796;BME280;1913;50.660;7.834;2023-03-25T13:36:31;96190.97;;;11.29;100.00
3796;BME280;1913;50.660;7.834;2023-03-25T13:39:14;96194.50;;;10.99;100.00
3796;BME280;1913;50.660;7.834;2023-03-25T13:41:46;96185.59;;;11.12;100.00
3796;BME280;1913;50.660;7.834;2023-03-25T13:44:29;96192.00;;;11.16;100.00
3796;BME280;1913;50.660;7.834;2023-03-25T13:47:18;96163.38;;;11.31;100.00
3796;BME280;1913;50.660;7.834;2023-03-25T13:49:56;96207.47;;;11.64;99.78
3796;BME280;1913;50.660;7.834;2023-03-25T13:52:28;96183.25;;;12.03;92.92
3796;BME280;1913;50.660;7.834;2023-03-25T13:55:00;96181.47;;;12.08;86.00
3796;BME280;1913;50.660;7.834;2023-03-25T14:09:20;96174.53;;;11.62;84.44
3796;BME280;1913;50.660;7.834;2023-03-25T14:14:52;96182.63;;;11.08;95.74
3796;BME280;1913;50.660;7.834;2023-03-25T14:17:20;96188.97;;;10.42;100.00
3796;BME280;1913;50.660;7.834;2023-03-25T14:19:49;96176.03;;;9.98;100.00
3796;BME280;1913;50.660;7.834;2023-03-25T14:22:28;96177.94;;;9.91;100.00
3796;BME280;1913;50.660;7.834;2023-03-25T14:24:56;96177.06;;;9.97;100.00
3796;BME280;1913;50.660;7.834;2023-03-25T14:27:32;96162.44;;;9.90;100.00
3796;BME280;1913;50.660;7.834;2023-03-25T14:32:33;96155.13;;;10.22;100.00
3796;BME280;1913;50.660;7.834;2023-03-25T14:37:56;96145.59;;;10.51;93.36
3796;BME280;1913;50.660;7.834;2023-03-25T14:40:46;96153.94;;;10.48;89.85
3796;BME280;1913;50.660;7.834;2023-03-25T14:53:49;96175.28;;;10.63;87.13
3796;BME280;1913;50.660;7.834;2023-03-25T14:56:18;96189.00;;;10.53;92.72
3796;BME280;1913;50.660;7.834;2023-03-25T14:58:45;96212.75;;;10.47;100.00
3796;BME280;1913;50.660;7.834;2023-03-25T15:01:17;96212.16;;;10.15;100.00
3796;BME280;1913;50.660;7.834;2023-03-25T15:03:44;96219.25;;;10.14;100.00
3796;BME280;1913;50.660;7.834;2023-03-25T15:06:15;96218.16;;;9.37;100.00
3796;BME280;1913;50.660;7.834;2023-03-25T15:08:52;96205.72;;;9.07;100.00
3796;BME280;1913;50.660;7.834;2023-03-25T15:11:26;96227.69;;;8.87;100.00
3796;BME280;1913;50.660;7.834;2023-03-25T15:13:59;96218.13;;;8.75;100.00
3796;BME280;1913;50.660;7.834;2023-03-25T15:19:12;96227.47;;;8.64;100.00
3796;BME280;1913;50.660;7.834;2023-03-25T15:24:29;96254.97;;;8.48;100.00
3796;BME280;1913;50.660;7.834;2023-03-25T15:27:02;96253.13;;;8.55;100.00
3796;BME280;1913;50.660;7.834;2023-03-25T15:35:35;96220.22;;;9.09;100.00
3796;BME280;1913;50.660;7.834;2023-03-25T15:43:58;96192.88;;;9.42;100.00
3796;BME280;1913;50.660;7.834;2023-03-25T15:52:50;96195.41;;;9.67;100.00
3796;BME280;1913;50.660;7.834;2023-03-25T15:55:26;96205.41;;;9.58;100.00
3796;BME280;1913;50.660;7.834;2023-03-25T15:57:56;96206.72;;;9.68;100.00
3796;BME280;1913;50.660;7.834;2023-03-25T16:00:27;96198.63;;;9.69;100.00
3796;BME280;1913;50.660;7.834;2023-03-25T16:05:26;96188.88;;;9.58;100.00
3796;BME280;1913;50.660;7.834;2023-03-25T16:07:54;96190.41;;;9.96;100.00
3796;BME280;1913;50.660;7.834;2023-03-25T16:10:31;96192.94;;;10.02;100.00